N365AD KSAN-KMYF
Flight info
| Callsign | N365AD |
|---|---|
| Flight time | 0h 3m |
| Altitude | VFR |
| Route | |
| Aircraft | C172/L-VGD/C |
Departure
| Time | 2026-05-06 02:32 |
|---|---|
| Airport | San Diego International Airport (KSAN) |
Arrival
| Time | 2026-05-06 02:35 |
|---|---|
| Airport | Montgomery-Gibbs Executive Airport (KMYF) |
| Time | Latitude | Longitude | Altitude | Speed | Heading |
|---|---|---|---|---|---|
| 2026-05-06 02:32 | 32.76232 | -117.23144 | 1256 ft | 110 kts | 335° |
| 2026-05-06 02:32 | 32.76967 | -117.22918 | 1378 ft | 122 kts | 32° |
| 2026-05-06 02:32 | 32.77619 | -117.22227 | 1333 ft | 132 kts | 36° |
| 2026-05-06 02:33 | 32.78327 | -117.21496 | 1243 ft | 137 kts | 46° |
| 2026-05-06 02:33 | 32.78628 | -117.20844 | 1254 ft | 140 kts | 65° |
| 2026-05-06 02:33 | 32.79046 | -117.18622 | 1299 ft | 127 kts | 79° |
| 2026-05-06 02:34 | 32.79227 | -117.17558 | 1205 ft | 135 kts | 72° |
| 2026-05-06 02:34 | 32.79490 | -117.16503 | 1219 ft | 136 kts | 69° |
| 2026-05-06 02:34 | 32.79755 | -117.15444 | 1044 ft | 138 kts | 71° |
| 2026-05-06 02:34 | 32.79940 | -117.14415 | 875 ft | 125 kts | 76° |
| 2026-05-06 02:35 | 32.80225 | -117.13458 | 831 ft | 119 kts | 39° |
| 2026-05-06 02:35 | 32.80915 | -117.13328 | 580 ft | 97 kts | 336° |
| 2026-05-06 02:35 | 32.81378 | -117.13796 | 418 ft | 81 kts | 303° |
| 2026-05-06 02:35 | 32.81596 | -117.14290 | 413 ft | 42 kts | 295° |
| 2026-05-06 02:36 | 32.81643 | -117.14406 | 420 ft | 0 kts | 293° |
| 2026-05-06 02:36 | 32.81650 | -117.14425 | 420 ft | 13 kts | 295° |
| 2026-05-06 02:36 | 32.81691 | -117.14520 | 419 ft | 0 kts | 320° |
| 2026-05-06 02:37 | 32.81693 | -117.14525 | 419 ft | 2 kts | 285° |
| 2026-05-06 02:37 | 32.81686 | -117.14540 | 419 ft | 1 kts | 210° |
| 2026-05-06 02:38 | 32.81671 | -117.14546 | 417 ft | 5 kts | 198° |
| 2026-05-06 02:38 | 32.81624 | -117.14552 | 420 ft | 0 kts | 130° |
| 2026-05-06 02:38 | 32.81611 | -117.14523 | 419 ft | 16 kts | 114° |
| 2026-05-06 02:39 | 32.81576 | -117.14433 | 421 ft | 0 kts | 116° |
| 2026-05-06 02:39 | 32.81561 | -117.14398 | 422 ft | 12 kts | 118° |
| 2026-05-06 02:40 | 32.81526 | -117.14309 | 419 ft | 12 kts | 112° |
| 2026-05-06 02:40 | 32.81490 | -117.14218 | 424 ft | 12 kts | 113° |
| 2026-05-06 02:40 | 32.81450 | -117.14116 | 423 ft | 15 kts | 114° |
| 2026-05-06 02:40 | 32.81405 | -117.13998 | 423 ft | 16 kts | 114° |
| 2026-05-06 02:41 | 32.81354 | -117.13870 | 422 ft | 18 kts | 115° |
| 2026-05-06 02:41 | 32.81297 | -117.13726 | 421 ft | 20 kts | 112° |
| 2026-05-06 02:41 | 32.81246 | -117.13593 | 422 ft | 12 kts | 105° |
| 2026-05-06 02:41 | 32.81249 | -117.13572 | 422 ft | 0 kts | 47° |
| 2026-05-06 02:42 | 32.81257 | -117.13566 | 418 ft | 10 kts | 22° |
| 2026-05-06 02:42 | 32.81322 | -117.13600 | 421 ft | 23 kts | 297° |
| 2026-05-06 02:43 | 32.81459 | -117.13947 | 422 ft | 67 kts | 295° |
| 2026-05-06 02:43 | 32.81675 | -117.14520 | 564 ft | 79 kts | 294° |
| 2026-05-06 02:43 | 32.81866 | -117.15095 | 881 ft | 66 kts | 296° |
| 2026-05-06 02:43 | 32.81948 | -117.15713 | 914 ft | 86 kts | 276° |
| 2026-05-06 02:44 | 32.81945 | -117.16397 | 1150 ft | 80 kts | 263° |
| 2026-05-06 02:44 | 32.81809 | -117.17092 | 1307 ft | 87 kts | 259° |
| 2026-05-06 02:44 | 32.81565 | -117.17770 | 1423 ft | 92 kts | 249° |
| 2026-05-06 02:44 | 32.81194 | -117.18462 | 1390 ft | 110 kts | 237° |
| 2026-05-06 02:45 | 32.80438 | -117.18754 | 1365 ft | 124 kts | 186° |
| 2026-05-06 02:45 | 32.79550 | -117.18671 | 1385 ft | 125 kts | 186° |
| 2026-05-06 02:45 | 32.78735 | -117.18724 | 1506 ft | 119 kts | 191° |
| 2026-05-06 02:45 | 32.77847 | -117.18763 | 1320 ft | 138 kts | 181° |
| 2026-05-06 02:46 | 32.76936 | -117.18393 | 1119 ft | 148 kts | 154° |
| 2026-05-06 02:46 | 32.76062 | -117.17771 | 948 ft | 145 kts | 152° |
| 2026-05-06 02:46 | 32.75189 | -117.17154 | 762 ft | 146 kts | 152° |
| 2026-05-06 02:46 | 32.74363 | -117.16563 | 752 ft | 139 kts | 153° |
| 2026-05-06 02:47 | 32.73519 | -117.16340 | 929 ft | 114 kts | 209° |
| 2026-05-06 02:47 | 32.72877 | -117.16843 | 507 ft | 107 kts | 245° |
| 2026-05-06 02:47 | 32.72984 | -117.17554 | 225 ft | 98 kts | 297° |
| 2026-05-06 02:47 | 32.73209 | -117.18342 | 19 ft | 91 kts | 288° |
| 2026-05-06 02:48 | 32.73350 | -117.18942 | 20 ft | 52 kts | 287° |
| 2026-05-06 02:48 | 32.73428 | -117.19094 | 18 ft | 7 kts | 20° |
| 2026-05-06 02:48 | 32.73432 | -117.19092 | 18 ft | 0 kts | 28° |
| 2026-05-06 02:48 | 32.73445 | -117.19083 | 18 ft | 15 kts | 31° |
| 2026-05-06 02:49 | 32.73470 | -117.18965 | 16 ft | 17 kts | 104° |
| 2026-05-06 02:49 | 32.73433 | -117.18810 | 16 ft | 25 kts | 106° |